Time;durP1;ratioP1;P1;durP2;ratioP2;P2;SDS_P1;SDS_P2;PMS_P1;PMS_P2;Temp;Humidity;BMP_temperature;BMP_pressure;BME280_temperature;BME280_humidity;BME280_pressure;Samples;Min_cycle;Max_cycle;Signal;HPM_P1;HPM_P2
2021/12/18 00:02:15;;;;;;;57.35;18.15;;;;;;;;;;5009302;28;20490;-74
2021/12/18 00:04:41;;;;;;;49.55;17.10;;;;;;;;;;5026131;28;20041;-74
2021/12/18 00:07:06;;;;;;;50.38;19.15;;;;;;;;;;5026922;28;20445;-73
2021/12/18 00:09:33;;;;;;;50.38;17.70;;;;;;;;;;5010097;28;20040;-73
2021/12/18 00:12:00;;;;;;;55.70;18.35;;;;;;;;;;5007589;28;20423;-73
2021/12/18 00:14:25;;;;;;;57.08;18.33;;;;;;;;;;5029615;28;20046;-73
2021/12/18 00:16:51;;;;;;;58.80;19.33;;;;;;;;;;5018673;28;20083;-73
2021/12/18 00:19:17;;;;;;;46.88;17.77;;;;;;;;;;5024522;28;20033;-73
2021/12/18 00:21:42;;;;;;;47.22;16.52;;;;;;;;;;5026300;28;20026;-73
2021/12/18 00:24:09;;;;;;;51.90;18.13;;;;;;;;;;5005717;28;20040;-73
2021/12/18 00:26:34;;;;;;;52.67;18.67;;;;;;;;;;5025947;28;20057;-74
2021/12/18 00:29:00;;;;;;;52.67;18.20;;;;;;;;;;5008778;28;20274;-74
2021/12/18 00:31:26;;;;;;;52.85;18.33;;;;;;;;;;5025491;28;20128;-73
2021/12/18 00:33:51;;;;;;;56.25;19.50;;;;;;;;;;5008924;28;20124;-73
2021/12/18 00:36:17;;;;;;;54.10;18.80;;;;;;;;;;5026290;28;20063;-74
2021/12/18 00:38:42;;;;;;;54.13;19.25;;;;;;;;;;5006123;28;20530;-74
2021/12/18 00:44:01;;;;;;;60.97;19.73;;;;;;;;;;5017803;28;20041;-73
2021/12/18 00:46:24;;;;;;;51.42;18.13;;;;;;;;;;5022183;28;20030;-73
2021/12/18 00:48:50;;;;;;;56.67;19.60;;;;;;;;;;5008087;28;20027;-73
2021/12/18 00:51:15;;;;;;;54.67;19.60;;;;;;;;;;5009111;28;20049;-73
2021/12/18 00:53:40;;;;;;;50.95;18.13;;;;;;;;;;5006798;28;20076;-73
2021/12/18 00:56:06;;;;;;;49.55;18.05;;;;;;;;;;5026403;28;20115;-73
2021/12/18 00:58:31;;;;;;;58.20;20.65;;;;;;;;;;5024834;28;20046;-73
2021/12/18 01:00:56;;;;;;;54.80;19.92;;;;;;;;;;5023891;28;20032;-73
2021/12/18 01:03:22;;;;;;;63.35;19.48;;;;;;;;;;5025239;28;20044;-74
2021/12/18 01:05:48;;;;;;;56.70;18.60;;;;;;;;;;5025144;28;20047;-73
2021/12/18 01:08:14;;;;;;;55.33;18.40;;;;;;;;;;5025599;28;20033;-73
2021/12/18 01:11:18;;;;;;;56.75;19.83;;;;;;;;;;5026079;28;20060;-73
2021/12/18 01:13:58;;;;;;;55.22;18.67;;;;;;;;;;5016444;28;20041;-74
2021/12/18 01:16:27;;;;;;;55.63;17.80;;;;;;;;;;5011772;28;20029;-73
2021/12/18 01:24:20;;;;;;;57.28;19.98;;;;;;;;;;5024555;28;20047;-74
2021/12/18 01:26:45;;;;;;;60.53;19.48;;;;;;;;;;5023061;28;20045;-74
2021/12/18 01:29:11;;;;;;;62.20;21.40;;;;;;;;;;5026190;28;20038;-73
2021/12/18 01:31:36;;;;;;;64.22;21.02;;;;;;;;;;5025230;28;20088;-73
2021/12/18 01:34:01;;;;;;;61.25;20.00;;;;;;;;;;5023804;28;20025;-73
2021/12/18 01:36:30;;;;;;;54.47;18.42;;;;;;;;;;5007203;28;20041;-73
2021/12/18 01:38:56;;;;;;;65.55;20.65;;;;;;;;;;5026058;28;20045;-73
2021/12/18 01:41:21;;;;;;;62.55;20.83;;;;;;;;;;5007316;28;20049;-74
2021/12/18 01:44:34;;;;;;;63.05;20.83;;;;;;;;;;5028109;28;20048;-73
2021/12/18 01:47:00;;;;;;;64.65;20.92;;;;;;;;;;5006963;28;20049;-74
2021/12/18 01:52:24;;;;;;;64.70;20.65;;;;;;;;;;5023161;28;20140;-73
2021/12/18 01:54:50;;;;;;;61.83;21.00;;;;;;;;;;5023184;28;20103;-74
2021/12/18 01:57:16;;;;;;;64.50;21.38;;;;;;;;;;5028979;28;20069;-73
2021/12/18 01:59:47;;;;;;;72.63;23.38;;;;;;;;;;5021913;28;20065;-73
2021/12/18 02:02:14;;;;;;;;;;;;;;;;;;5022110;28;20696;-73
2021/12/18 02:04:40;;;;;;;69.18;22.55;;;;;;;;;;5025079;28;19924;-73
2021/12/18 02:07:07;;;;;;;69.13;22.15;;;;;;;;;;5004512;28;20079;-73
2021/12/18 02:10:02;;;;;;;63.45;21.75;;;;;;;;;;5023991;28;20025;-74
2021/12/18 02:12:23;;;;;;;70.50;21.55;;;;;;;;;;5024081;28;20124;-74
2021/12/18 02:23:02;;;;;;;73.18;22.23;;;;;;;;;;5025168;28;20041;-73
2021/12/18 02:25:30;;;;;;;64.85;20.23;;;;;;;;;;5018030;28;20128;-73
2021/12/18 02:27:56;;;;;;;65.88;19.52;;;;;;;;;;5024129;28;20037;-73
2021/12/18 02:30:22;;;;;;;70.65;20.52;;;;;;;;;;5020899;28;20046;-74
2021/12/18 02:32:51;;;;;;;73.10;23.05;;;;;;;;;;5023101;28;20042;-74
2021/12/18 02:35:26;;;;;;;69.72;21.50;;;;;;;;;;5005315;28;20049;-73
2021/12/18 02:38:00;;;;;;;60.97;18.55;;;;;;;;;;5023187;28;20967;-73
2021/12/18 02:43:13;;;;;;;67.75;20.98;;;;;;;;;;5024856;28;20493;-73
2021/12/18 02:45:38;;;;;;;68.55;21.95;;;;;;;;;;5005806;28;20025;-73
2021/12/18 02:48:04;;;;;;;76.65;22.15;;;;;;;;;;5018534;28;20036;-74
2021/12/18 02:50:30;;;;;;;66.80;21.40;;;;;;;;;;5006008;28;20559;-74
2021/12/18 02:52:55;;;;;;;65.75;19.52;;;;;;;;;;5023119;28;20187;-73
2021/12/18 02:55:20;;;;;;;65.93;20.38;;;;;;;;;;5024507;28;20057;-73
2021/12/18 02:57:46;;;;;;;77.10;21.60;;;;;;;;;;5023828;28;20102;-73
2021/12/18 03:00:12;;;;;;;70.88;21.83;;;;;;;;;;5023956;28;20037;-73
2021/12/18 03:02:44;;;;;;;69.32;21.65;;;;;;;;;;5022727;28;20137;-73
2021/12/18 03:05:13;;;;;;;76.70;20.95;;;;;;;;;;5003401;28;20037;-74
2021/12/18 03:07:39;;;;;;;66.35;20.83;;;;;;;;;;5007238;28;20041;-74
2021/12/18 03:23:46;;;;;;;67.93;20.95;;;;;;;;;;5027766;28;20470;-74
2021/12/18 03:26:13;;;;;;;75.75;21.75;;;;;;;;;;5031583;28;20045;-73
2021/12/18 03:28:39;;;;;;;85.32;25.27;;;;;;;;;;5027677;28;20040;-74
2021/12/18 03:31:04;;;;;;;70.38;21.88;;;;;;;;;;5010265;28;20021;-73
2021/12/18 03:33:29;;;;;;;70.75;20.60;;;;;;;;;;5028391;28;20518;-73
2021/12/18 03:35:56;;;;;;;73.75;22.00;;;;;;;;;;5015502;28;20474;-73
2021/12/18 03:38:22;;;;;;;77.18;21.30;;;;;;;;;;5030121;28;20462;-73
2021/12/18 03:40:48;;;;;;;77.63;22.38;;;;;;;;;;5024140;28;20061;-74
2021/12/18 03:43:13;;;;;;;71.22;20.80;;;;;;;;;;5027286;28;20033;-74
2021/12/18 03:45:38;;;;;;;77.63;22.38;;;;;;;;;;5010700;28;20044;-74
2021/12/18 03:48:04;;;;;;;75.28;20.42;;;;;;;;;;5010274;28;20029;-73
2021/12/18 03:50:29;;;;;;;81.10;20.88;;;;;;;;;;5028153;28;20052;-73
2021/12/18 03:52:55;;;;;;;83.82;24.55;;;;;;;;;;5024693;28;20041;-74
2021/12/18 03:55:21;;;;;;;82.20;22.48;;;;;;;;;;5010307;28;20029;-73
2021/12/18 03:57:46;;;;;;;84.38;23.63;;;;;;;;;;5010514;28;20462;-73
2021/12/18 04:00:14;;;;;;;85.03;22.60;;;;;;;;;;5025529;28;20033;-73
2021/12/18 04:02:40;;;;;;;82.82;23.48;;;;;;;;;;5027666;28;20121;-73
2021/12/18 04:05:06;;;;;;;78.93;24.70;;;;;;;;;;5008467;28;20037;-73
2021/12/18 04:07:39;;;;;;;75.22;21.17;;;;;;;;;;5026992;28;20041;-74
2021/12/18 04:10:05;;;;;;;92.55;24.45;;;;;;;;;;5028750;28;20036;-74
2021/12/18 04:12:31;;;;;;;74.03;22.10;;;;;;;;;;5027184;28;20042;-74
2021/12/18 04:14:56;;;;;;;73.60;21.77;;;;;;;;;;5029992;28;20046;-73
2021/12/18 04:17:21;;;;;;;58.67;18.30;;;;;;;;;;5023802;28;20446;-73
2021/12/18 04:19:46;;;;;;;50.75;15.85;;;;;;;;;;5009429;28;20034;-74
2021/12/18 04:22:12;;;;;;;78.07;21.90;;;;;;;;;;5010501;28;20026;-73
2021/12/18 04:24:37;;;;;;;82.05;21.27;;;;;;;;;;5027448;28;20041;-73
2021/12/18 04:27:03;;;;;;;74.60;21.25;;;;;;;;;;5018980;28;20033;-73
2021/12/18 04:29:28;;;;;;;56.92;17.33;;;;;;;;;;5027719;28;20049;-73
2021/12/18 04:31:53;;;;;;;76.43;23.30;;;;;;;;;;5028585;28;20621;-74
2021/12/18 04:34:18;;;;;;;76.55;23.42;;;;;;;;;;5026098;28;20029;-74
2021/12/18 04:36:44;;;;;;;85.18;22.65;;;;;;;;;;5036580;28;20033;-73
2021/12/18 04:39:10;;;;;;;77.82;22.55;;;;;;;;;;5010105;28;20042;-73
2021/12/18 04:41:42;;;;;;;83.40;24.55;;;;;;;;;;5026785;28;20104;-73
2021/12/18 04:44:08;;;;;;;79.30;22.30;;;;;;;;;;5028824;28;20029;-73
2021/12/18 04:46:34;;;;;;;78.38;22.95;;;;;;;;;;5019076;28;20289;-72
2021/12/18 04:49:00;;;;;;;40.70;16.75;;;;;;;;;;5025287;28;20055;-74
2021/12/18 04:51:25;;;;;;;73.65;23.85;;;;;;;;;;5026054;28;20102;-73
2021/12/18 04:53:51;;;;;;;86.25;21.55;;;;;;;;;;5026274;28;20048;-73
2021/12/18 04:56:16;;;;;;;79.82;22.63;;;;;;;;;;5025014;28;20052;-73
2021/12/18 04:58:41;;;;;;;66.85;18.85;;;;;;;;;;5027988;28;20120;-73
2021/12/18 05:01:07;;;;;;;78.68;22.98;;;;;;;;;;5025298;28;20128;-74
2021/12/18 05:03:32;;;;;;;75.45;22.63;;;;;;;;;;5020882;28;20033;-74
2021/12/18 05:06:00;;;;;;;76.22;23.38;;;;;;;;;;5026190;28;20540;-73
2021/12/18 05:08:25;;;;;;;71.97;21.35;;;;;;;;;;5026182;28;20033;-73
2021/12/18 05:10:51;;;;;;;84.97;24.73;;;;;;;;;;5013293;28;20057;-73
2021/12/18 05:13:16;;;;;;;71.28;22.20;;;;;;;;;;5008588;28;20039;-74
2021/12/18 05:15:42;;;;;;;84.70;24.25;;;;;;;;;;5008237;28;20144;-74
2021/12/18 05:18:07;;;;;;;72.10;20.52;;;;;;;;;;5016278;28;20049;-73
2021/12/18 05:20:33;;;;;;;80.75;24.73;;;;;;;;;;5024970;28;20037;-73
2021/12/18 05:22:58;;;;;;;70.45;20.60;;;;;;;;;;5007506;28;20033;-73
2021/12/18 05:25:23;;;;;;;91.63;24.17;;;;;;;;;;5004497;28;20402;-73
2021/12/18 05:27:49;;;;;;;65.82;20.20;;;;;;;;;;5026117;28;20414;-73
2021/12/18 05:30:14;;;;;;;53.20;17.90;;;;;;;;;;5009167;28;20132;-73
2021/12/18 05:32:40;;;;;;;69.15;19.67;;;;;;;;;;5006726;28;20494;-73
2021/12/18 05:35:06;;;;;;;63.70;19.50;;;;;;;;;;5007743;28;20041;-73
2021/12/18 05:37:54;;;;;;;89.20;26.20;;;;;;;;;;5025133;28;20045;-73
2021/12/18 05:40:20;;;;;;;60.45;19.85;;;;;;;;;;5025041;28;20045;-73
2021/12/18 05:42:46;;;;;;;72.07;21.63;;;;;;;;;;5021280;28;20042;-73
2021/12/18 05:45:11;;;;;;;85.68;23.50;;;;;;;;;;4998973;28;20052;-73
2021/12/18 05:47:37;;;;;;;71.00;21.27;;;;;;;;;;5026705;28;20045;-73
2021/12/18 05:50:04;;;;;;;75.60;22.23;;;;;;;;;;5025533;28;20057;-74
2021/12/18 05:52:30;;;;;;;88.15;23.70;;;;;;;;;;5025332;28;20057;-73
2021/12/18 05:54:55;;;;;;;79.20;22.98;;;;;;;;;;5008228;28;20033;-74
2021/12/18 05:57:21;;;;;;;76.00;24.35;;;;;;;;;;5026215;28;20037;-73
2021/12/18 05:59:46;;;;;;;82.22;24.80;;;;;;;;;;5008389;28;20041;-73
2021/12/18 06:02:12;;;;;;;82.90;24.45;;;;;;;;;;5026497;28;20570;-74
2021/12/18 06:04:37;;;;;;;86.90;24.20;;;;;;;;;;5007099;28;20060;-73
2021/12/18 06:07:04;;;;;;;74.47;22.95;;;;;;;;;;5015832;28;20495;-73
2021/12/18 06:09:31;;;;;;;63.00;18.45;;;;;;;;;;5003097;28;20049;-74
2021/12/18 06:11:58;;;;;;;83.30;23.85;;;;;;;;;;5026611;28;20121;-74
2021/12/18 06:14:24;;;;;;;67.40;21.30;;;;;;;;;;5024643;28;20503;-73
2021/12/18 06:16:49;;;;;;;60.58;20.60;;;;;;;;;;5009776;28;20087;-73
2021/12/18 06:19:14;;;;;;;60.17;17.85;;;;;;;;;;5009169;28;20036;-73
2021/12/18 06:21:40;;;;;;;80.13;23.48;;;;;;;;;;5026834;28;20467;-73
2021/12/18 06:24:05;;;;;;;71.38;21.63;;;;;;;;;;5020702;28;20455;-73
2021/12/18 06:26:30;;;;;;;68.75;21.05;;;;;;;;;;5025839;28;20107;-73
2021/12/18 06:28:56;;;;;;;78.32;22.48;;;;;;;;;;5003502;28;20041;-73
2021/12/18 06:31:22;;;;;;;80.53;21.25;;;;;;;;;;5008864;28;20103;-73
2021/12/18 06:33:48;;;;;;;88.28;23.75;;;;;;;;;;5026407;28;20095;-73
2021/12/18 06:36:13;;;;;;;86.75;25.23;;;;;;;;;;5024363;28;20045;-73
2021/12/18 06:38:38;;;;;;;81.72;22.98;;;;;;;;;;5024661;28;20474;-73
2021/12/18 06:41:04;;;;;;;92.57;24.55;;;;;;;;;;5026088;28;20678;-73
2021/12/18 06:43:29;;;;;;;80.05;21.42;;;;;;;;;;5020000;28;20050;-73
2021/12/18 06:45:54;;;;;;;93.60;26.88;;;;;;;;;;5027139;28;20105;-73
2021/12/18 06:48:20;;;;;;;67.95;20.80;;;;;;;;;;5028666;28;20038;-73
2021/12/18 06:50:45;;;;;;;80.43;23.50;;;;;;;;;;5027567;28;20096;-73
2021/12/18 06:53:11;;;;;;;62.58;18.45;;;;;;;;;;5028738;28;20538;-73
2021/12/18 06:55:36;;;;;;;78.22;21.75;;;;;;;;;;5028457;28;20160;-73
2021/12/18 06:58:01;;;;;;;79.65;23.70;;;;;;;;;;5025559;28;20103;-73
2021/12/18 07:00:29;;;;;;;82.25;22.75;;;;;;;;;;5023240;28;20064;-73
2021/12/18 07:02:54;;;;;;;65.15;18.70;;;;;;;;;;5018286;28;20510;-73
2021/12/18 07:05:20;;;;;;;70.75;20.00;;;;;;;;;;5038046;28;20087;-73
2021/12/18 07:07:46;;;;;;;49.17;16.77;;;;;;;;;;5029246;28;20064;-73
2021/12/18 07:10:14;;;;;;;83.35;23.92;;;;;;;;;;5027610;28;20056;-75
2021/12/18 07:12:39;;;;;;;61.20;18.27;;;;;;;;;;5030810;28;20521;-73
2021/12/18 07:15:06;;;;;;;68.57;19.27;;;;;;;;;;5028279;28;20111;-73
2021/12/18 07:17:32;;;;;;;81.72;21.70;;;;;;;;;;5013711;28;20045;-74
2021/12/18 07:19:57;;;;;;;62.72;17.25;;;;;;;;;;5003715;28;20041;-74
2021/12/18 07:22:22;;;;;;;72.28;20.70;;;;;;;;;;5019325;28;20463;-73
2021/12/18 07:24:48;;;;;;;74.85;20.58;;;;;;;;;;5019211;28;20410;-74
2021/12/18 07:27:13;;;;;;;85.68;22.95;;;;;;;;;;5028849;28;20045;-73
2021/12/18 07:29:38;;;;;;;94.47;23.67;;;;;;;;;;5008857;28;20045;-73
2021/12/18 07:32:04;;;;;;;76.55;20.08;;;;;;;;;;5006499;28;20511;-73
2021/12/18 07:34:31;;;;;;;51.65;16.90;;;;;;;;;;5029009;28;20064;-73
2021/12/18 07:36:56;;;;;;;86.90;23.13;;;;;;;;;;5011819;28;20041;-74
2021/12/18 07:39:21;;;;;;;81.38;20.40;;;;;;;;;;5011339;28;20056;-73
2021/12/18 07:41:47;;;;;;;76.47;21.83;;;;;;;;;;5027321;28;20037;-73
2021/12/18 07:44:12;;;;;;;84.95;21.38;;;;;;;;;;5005805;28;20045;-73
2021/12/18 07:46:38;;;;;;;68.80;21.15;;;;;;;;;;5021865;28;20648;-73
2021/12/18 07:49:05;;;;;;;80.32;21.15;;;;;;;;;;5029289;28;20025;-74
2021/12/18 07:51:31;;;;;;;81.28;22.30;;;;;;;;;;5026589;28;20776;-73
2021/12/18 07:53:56;;;;;;;87.47;22.25;;;;;;;;;;5025572;28;20049;-74
2021/12/18 07:56:22;;;;;;;72.07;20.30;;;;;;;;;;5007984;28;20046;-73
2021/12/18 07:58:47;;;;;;;67.72;18.73;;;;;;;;;;4991623;28;20045;-73
2021/12/18 08:01:12;;;;;;;80.65;21.08;;;;;;;;;;5004881;28;20099;-71
2021/12/18 08:03:38;;;;;;;60.63;15.07;;;;;;;;;;5007512;28;20179;-71
2021/12/18 08:06:03;;;;;;;77.45;19.63;;;;;;;;;;5021677;28;20045;-71
2021/12/18 08:08:29;;;;;;;72.00;18.85;;;;;;;;;;5007034;28;20038;-71
2021/12/18 08:10:54;;;;;;;72.15;19.75;;;;;;;;;;5005986;28;20046;-72
2021/12/18 08:13:19;;;;;;;57.13;15.82;;;;;;;;;;5020581;28;20124;-73
2021/12/18 08:15:45;;;;;;;63.78;19.35;;;;;;;;;;5018142;28;20044;-73
2021/12/18 08:18:10;;;;;;;77.97;20.90;;;;;;;;;;5009627;28;20045;-73
2021/12/18 08:20:36;;;;;;;75.18;19.88;;;;;;;;;;4989365;28;20578;-73
2021/12/18 08:23:02;;;;;;;79.22;21.15;;;;;;;;;;5004974;28;20038;-73
2021/12/18 08:25:29;;;;;;;78.05;18.90;;;;;;;;;;4994805;28;20041;-73
2021/12/18 08:27:56;;;;;;;74.78;19.17;;;;;;;;;;5016490;28;20030;-73
2021/12/18 08:30:23;;;;;;;68.65;17.70;;;;;;;;;;5006983;28;20103;-73
2021/12/18 08:32:48;;;;;;;64.35;17.00;;;;;;;;;;5021320;28;20080;-73
2021/12/18 08:35:13;;;;;;;66.30;17.65;;;;;;;;;;4990772;28;20128;-73
2021/12/18 08:37:40;;;;;;;55.38;13.95;;;;;;;;;;5006816;28;20041;-73
2021/12/18 08:40:06;;;;;;;58.22;16.55;;;;;;;;;;5007965;28;20060;-73
2021/12/18 08:42:32;;;;;;;63.92;17.25;;;;;;;;;;5023859;28;20053;-73
2021/12/18 08:44:57;;;;;;;72.65;19.90;;;;;;;;;;5025378;28;20044;-73
2021/12/18 08:47:22;;;;;;;70.80;17.15;;;;;;;;;;5007843;28;20033;-74
2021/12/18 08:49:48;;;;;;;69.35;18.02;;;;;;;;;;5005833;28;20044;-73
2021/12/18 08:52:13;;;;;;;76.63;19.52;;;;;;;;;;5008751;28;20079;-73
2021/12/18 08:54:38;;;;;;;76.57;19.38;;;;;;;;;;5011013;28;20033;-73
2021/12/18 08:57:04;;;;;;;73.78;19.73;;;;;;;;;;4999156;28;20392;-75
2021/12/18 08:59:29;;;;;;;52.42;14.00;;;;;;;;;;5004805;28;20056;-75
2021/12/18 09:01:54;;;;;;;74.13;17.90;;;;;;;;;;5003096;28;20125;-75
2021/12/18 09:04:20;;;;;;;76.47;18.65;;;;;;;;;;4997393;28;20570;-75
2021/12/18 09:06:45;;;;;;;73.22;18.25;;;;;;;;;;4997853;28;20037;-75
2021/12/18 09:09:11;;;;;;;73.88;19.90;;;;;;;;;;5005163;28;20034;-75
2021/12/18 09:11:36;;;;;;;79.93;20.30;;;;;;;;;;5006236;28;20049;-75
2021/12/18 09:14:02;;;;;;;80.68;19.60;;;;;;;;;;5003222;28;20054;-75
2021/12/18 09:16:30;;;;;;;74.18;18.33;;;;;;;;;;5006136;28;20046;-75
2021/12/18 09:18:56;;;;;;;80.88;19.85;;;;;;;;;;5006644;28;20033;-75
2021/12/18 09:21:22;;;;;;;78.75;19.02;;;;;;;;;;5007458;28;20072;-74
2021/12/18 09:23:47;;;;;;;70.65;18.45;;;;;;;;;;5004249;28;20045;-75
2021/12/18 09:26:12;;;;;;;71.75;18.83;;;;;;;;;;4989635;28;20867;-74
2021/12/18 09:28:38;;;;;;;70.70;17.85;;;;;;;;;;5012525;28;20037;-75
2021/12/18 09:31:04;;;;;;;74.68;19.80;;;;;;;;;;5006701;28;20048;-75
2021/12/18 09:33:29;;;;;;;80.00;19.10;;;;;;;;;;5005581;28;20053;-75
2021/12/18 09:35:54;;;;;;;70.88;17.85;;;;;;;;;;5008352;28;20046;-74
2021/12/18 09:38:19;;;;;;;72.18;18.50;;;;;;;;;;5006598;28;20038;-76
2021/12/18 09:40:45;;;;;;;65.28;17.65;;;;;;;;;;5006376;28;20033;-77
2021/12/18 09:43:10;;;;;;;73.85;19.55;;;;;;;;;;5006848;28;20036;-77
2021/12/18 09:45:36;;;;;;;76.30;19.23;;;;;;;;;;5007808;28;20615;-76
2021/12/18 09:48:01;;;;;;;81.00;19.80;;;;;;;;;;4989149;28;20042;-77
2021/12/18 09:50:28;;;;;;;74.97;18.80;;;;;;;;;;5005156;28;20050;-77
2021/12/18 09:52:54;;;;;;;68.85;16.67;;;;;;;;;;5004698;28;20121;-77
2021/12/18 09:55:20;;;;;;;71.75;17.58;;;;;;;;;;4987866;28;20105;-77
2021/12/18 09:57:46;;;;;;;70.43;16.85;;;;;;;;;;5006222;28;20035;-77
2021/12/18 10:00:15;;;;;;;67.03;16.73;;;;;;;;;;5005733;28;20038;-76
2021/12/18 10:02:41;;;;;;;57.13;16.70;;;;;;;;;;4988893;28;20034;-76
2021/12/18 10:05:17;;;;;;;55.78;14.80;;;;;;;;;;5006853;28;20041;-76
2021/12/18 10:07:43;;;;;;;60.97;16.10;;;;;;;;;;4998536;28;20092;-76
2021/12/18 10:10:10;;;;;;;57.53;16.00;;;;;;;;;;5006424;28;20380;-76
2021/12/18 10:12:35;;;;;;;66.00;17.75;;;;;;;;;;5005938;28;20549;-76
2021/12/18 10:15:04;;;;;;;65.75;16.73;;;;;;;;;;5006571;28;20041;-76
2021/12/18 10:17:36;;;;;;;58.40;16.02;;;;;;;;;;5001609;28;20048;-77
2021/12/18 10:20:10;;;;;;;63.60;17.58;;;;;;;;;;5006441;28;20042;-76
2021/12/18 10:22:42;;;;;;;62.28;16.38;;;;;;;;;;4999294;28;20049;-76
2021/12/18 10:25:08;;;;;;;68.20;18.50;;;;;;;;;;4988225;28;20045;-77
2021/12/18 10:27:37;;;;;;;67.53;16.02;;;;;;;;;;5005837;28;20064;-77
2021/12/18 10:30:15;;;;;;;69.15;16.80;;;;;;;;;;5004498;28;20045;-77
2021/12/18 10:32:45;;;;;;;60.33;15.45;;;;;;;;;;5003064;28;20053;-77
2021/12/18 10:35:10;;;;;;;70.50;17.55;;;;;;;;;;5004721;28;20054;-76
2021/12/18 10:37:36;;;;;;;70.32;15.43;;;;;;;;;;5006826;28;20045;-77
2021/12/18 10:40:10;;;;;;;70.75;16.98;;;;;;;;;;5016100;28;20028;-76
2021/12/18 10:42:42;;;;;;;64.57;16.30;;;;;;;;;;5005423;28;20042;-77
2021/12/18 10:45:07;;;;;;;67.18;17.77;;;;;;;;;;4986940;28;20046;-76
2021/12/18 10:47:57;;;;;;;68.43;16.92;;;;;;;;;;4973907;28;20050;-76
2021/12/18 10:50:28;;;;;;;71.95;17.80;;;;;;;;;;4992964;28;23390;-77
2021/12/18 10:53:06;;;;;;;63.40;16.42;;;;;;;;;;5007705;28;20465;-77
2021/12/18 10:55:38;;;;;;;62.78;15.43;;;;;;;;;;5024528;28;20801;-77
2021/12/18 10:58:06;;;;;;;62.90;14.73;;;;;;;;;;5035538;28;20116;-77
2021/12/18 11:00:40;;;;;;;56.95;15.05;;;;;;;;;;5011310;28;20048;-76
2021/12/18 11:03:22;;;;;;;54.75;14.18;;;;;;;;;;5025308;28;20040;-76
2021/12/18 11:06:07;;;;;;;54.15;13.52;;;;;;;;;;5025607;28;20099;-77
2021/12/18 11:08:36;;;;;;;59.08;15.68;;;;;;;;;;5024948;28;20045;-76
2021/12/18 11:13:38;;;;;;;61.38;14.25;;;;;;;;;;5026750;28;20037;-76
2021/12/18 11:13:50;;;;;;;56.25;14.32;;;;;;;;;;5025601;28;20054;-77
2021/12/18 11:16:17;;;;;;;45.00;13.07;;;;;;;;;;5018625;28;20155;-76
2021/12/18 11:18:43;;;;;;;58.63;15.05;;;;;;;;;;5021053;28;20029;-77
2021/12/18 11:21:09;;;;;;;55.50;14.18;;;;;;;;;;5025619;28;20053;-77
2021/12/18 11:23:42;;;;;;;50.58;14.65;;;;;;;;;;5025835;28;20558;-77
2021/12/18 11:26:12;;;;;;;56.33;15.83;;;;;;;;;;5006185;28;20030;-76
2021/12/18 11:28:43;;;;;;;53.85;13.57;;;;;;;;;;5024269;28;20793;-77
2021/12/18 11:31:08;;;;;;;51.17;14.02;;;;;;;;;;5023948;28;20517;-76
2021/12/18 11:33:34;;;;;;;49.40;13.75;;;;;;;;;;5031382;28;20029;-77
2021/12/18 11:36:03;;;;;;;53.65;13.35;;;;;;;;;;5028476;28;20091;-77
2021/12/18 11:38:30;;;;;;;50.92;13.70;;;;;;;;;;5029366;28;20104;-76
2021/12/18 11:40:55;;;;;;;45.20;13.02;;;;;;;;;;5027492;28;20026;-76
2021/12/18 11:43:41;;;;;;;49.90;13.10;;;;;;;;;;5027416;28;20040;-76
2021/12/18 11:46:33;;;;;;;54.60;14.02;;;;;;;;;;5032206;28;20105;-77
2021/12/18 11:49:05;;;;;;;47.33;14.38;;;;;;;;;;5022383;28;20774;-75
2021/12/18 11:51:31;;;;;;;50.95;14.23;;;;;;;;;;4991114;28;20543;-75
2021/12/18 11:53:57;;;;;;;53.13;13.93;;;;;;;;;;5007843;28;20045;-75
2021/12/18 11:56:23;;;;;;;53.67;14.30;;;;;;;;;;5003457;28;20056;-75
2021/12/18 11:58:49;;;;;;;59.97;13.95;;;;;;;;;;5008392;28;20037;-75
2021/12/18 12:01:19;;;;;;;62.75;14.23;;;;;;;;;;4987990;28;20385;-76
2021/12/18 12:03:50;;;;;;;60.00;15.88;;;;;;;;;;5008173;28;20025;-75
2021/12/18 12:06:19;;;;;;;54.28;13.07;;;;;;;;;;5007302;28;20435;-75
2021/12/18 12:08:45;;;;;;;51.00;13.77;;;;;;;;;;5005221;28;20068;-76
2021/12/18 12:11:18;;;;;;;50.05;12.25;;;;;;;;;;5008576;28;20108;-75
2021/12/18 12:14:02;;;;;;;;;;;;;;;;;;5001404;28;20065;-75
2021/12/18 12:16:46;;;;;;;44.58;13.07;;;;;;;;;;5007926;28;19917;-75
2021/12/18 12:19:12;;;;;;;;;;;;;;;;;;5001664;28;20029;-75
2021/12/18 12:21:39;;;;;;;40.08;12.10;;;;;;;;;;5008645;28;19913;-75
2021/12/18 12:24:05;;;;;;;49.58;12.88;;;;;;;;;;4990493;28;20455;-75
2021/12/18 12:26:31;;;;;;;51.20;13.43;;;;;;;;;;4989334;28;20042;-75
2021/12/18 12:28:56;;;;;;;57.85;13.50;;;;;;;;;;5000288;28;21732;-75
2021/12/18 12:31:22;;;;;;;52.58;13.93;;;;;;;;;;5002046;28;20026;-75
2021/12/18 12:33:49;;;;;;;47.15;13.57;;;;;;;;;;5006215;28;20533;-75
2021/12/18 12:36:26;;;;;;;52.80;12.25;;;;;;;;;;4987703;28;20043;-75
2021/12/18 12:38:51;;;;;;;50.88;12.77;;;;;;;;;;4989732;28;20041;-75
2021/12/18 12:41:23;;;;;;;46.35;12.60;;;;;;;;;;5005667;28;20038;-75
2021/12/18 12:43:49;;;;;;;47.63;12.25;;;;;;;;;;5001614;28;20034;-75
2021/12/18 12:46:16;;;;;;;37.20;11.07;;;;;;;;;;4981888;28;20030;-75
2021/12/18 12:48:59;;;;;;;43.13;12.23;;;;;;;;;;5006961;28;20415;-76
2021/12/18 12:51:25;;;;;;;42.83;12.18;;;;;;;;;;5008509;28;20082;-75
2021/12/18 12:53:52;;;;;;;53.28;11.88;;;;;;;;;;4992472;28;20132;-75
2021/12/18 12:56:20;;;;;;;53.97;13.75;;;;;;;;;;4998703;28;20049;-75
2021/12/18 12:58:46;;;;;;;47.15;12.25;;;;;;;;;;5004417;28;20034;-75
2021/12/18 13:01:12;;;;;;;45.63;12.95;;;;;;;;;;4996984;28;20021;-75
2021/12/18 13:03:46;;;;;;;45.63;12.20;;;;;;;;;;5008226;28;20033;-76
2021/12/18 13:06:16;;;;;;;51.45;12.25;;;;;;;;;;5006356;28;20034;-75
2021/12/18 13:08:43;;;;;;;48.05;12.38;;;;;;;;;;5008561;28;20042;-76
2021/12/18 13:11:16;;;;;;;52.60;13.57;;;;;;;;;;4994443;28;20562;-75
2021/12/18 13:13:42;;;;;;;51.08;12.05;;;;;;;;;;5006523;28;20113;-75
2021/12/18 13:16:15;;;;;;;52.35;12.52;;;;;;;;;;5006744;28;20033;-75
2021/12/18 13:18:45;;;;;;;45.63;11.52;;;;;;;;;;5005235;28;20021;-75
2021/12/18 13:21:14;;;;;;;47.00;12.27;;;;;;;;;;5006215;28;20563;-75
2021/12/18 13:23:59;;;;;;;44.25;12.30;;;;;;;;;;5003721;28;20099;-75
2021/12/18 13:26:30;;;;;;;50.35;12.50;;;;;;;;;;4985564;28;20045;-75
2021/12/18 13:29:00;;;;;;;53.97;13.85;;;;;;;;;;5002611;28;20145;-75
2021/12/18 13:31:29;;;;;;;44.35;13.02;;;;;;;;;;5005004;28;20231;-75
2021/12/18 13:34:03;;;;;;;49.33;12.52;;;;;;;;;;5006339;28;20075;-75
2021/12/18 13:36:41;;;;;;;51.53;14.43;;;;;;;;;;5005453;28;20236;-76
2021/12/18 13:39:09;;;;;;;53.38;12.93;;;;;;;;;;5005836;28;20073;-75
2021/12/18 13:41:34;;;;;;;49.20;11.93;;;;;;;;;;4987880;28;20041;-75
2021/12/18 13:44:00;;;;;;;51.70;12.85;;;;;;;;;;4999982;28;20030;-75
2021/12/18 13:46:30;;;;;;;48.45;12.43;;;;;;;;;;4997113;28;20108;-75
2021/12/18 13:48:55;;;;;;;48.35;12.45;;;;;;;;;;5002328;28;20040;-75
2021/12/18 13:51:21;;;;;;;55.92;13.27;;;;;;;;;;5002264;28;20050;-75
2021/12/18 13:54:02;;;;;;;51.75;13.32;;;;;;;;;;5001893;28;20077;-75
2021/12/18 13:56:38;;;;;;;31.17;9.80;;;;;;;;;;4985018;28;20052;-75
2021/12/18 13:59:18;;;;;;;56.72;13.77;;;;;;;;;;4985974;28;20034;-75
2021/12/18 14:01:44;;;;;;;33.58;9.77;;;;;;;;;;5000829;28;20045;-75
2021/12/18 14:04:16;;;;;;;43.20;12.30;;;;;;;;;;5003354;28;20068;-75
2021/12/18 14:06:44;;;;;;;35.92;10.35;;;;;;;;;;5003576;28;20115;-75
2021/12/18 14:09:23;;;;;;;41.30;10.23;;;;;;;;;;4984194;28;20526;-76
2021/12/18 14:11:58;;;;;;;40.83;10.27;;;;;;;;;;4980557;28;20117;-76
2021/12/18 14:14:37;;;;;;;41.95;10.05;;;;;;;;;;5004232;28;20065;-76
2021/12/18 14:17:08;;;;;;;33.88;9.10;;;;;;;;;;4986646;28;20145;-76
2021/12/18 14:19:36;;;;;;;36.53;10.52;;;;;;;;;;4984026;28;20061;-75
2021/12/18 14:22:04;;;;;;;36.40;9.15;;;;;;;;;;4987980;28;20058;-75
2021/12/18 14:24:30;;;;;;;46.72;12.15;;;;;;;;;;5000018;28;20046;-75
2021/12/18 14:27:10;;;;;;;36.03;10.20;;;;;;;;;;5004066;28;20096;-76
2021/12/18 14:29:38;;;;;;;39.15;9.50;;;;;;;;;;4983558;28;20586;-75
2021/12/18 14:32:06;;;;;;;45.22;10.90;;;;;;;;;;5000789;28;20107;-75
2021/12/18 14:34:37;;;;;;;43.67;11.18;;;;;;;;;;5004402;28;20065;-75
2021/12/18 14:37:12;;;;;;;50.08;12.13;;;;;;;;;;5001740;28;20026;-75
2021/12/18 14:39:43;;;;;;;39.65;11.77;;;;;;;;;;4986128;28;20052;-75
2021/12/18 14:42:12;;;;;;;37.17;11.27;;;;;;;;;;5000853;28;20047;-75
2021/12/18 14:44:59;;;;;;;30.83;8.25;;;;;;;;;;5003007;28;20045;-75
2021/12/18 14:47:30;;;;;;;34.03;9.82;;;;;;;;;;4985049;28;20601;-75
2021/12/18 14:50:07;;;;;;;38.83;10.07;;;;;;;;;;4997905;28;20586;-75
2021/12/18 14:53:07;;;;;;;39.03;10.20;;;;;;;;;;5016098;28;20129;-75
2021/12/18 14:55:52;;;;;;;41.10;11.15;;;;;;;;;;5019812;28;20048;-75
2021/12/18 14:58:38;;;;;;;50.28;13.00;;;;;;;;;;5022593;28;20029;-74
2021/12/18 15:01:11;;;;;;;44.65;9.60;;;;;;;;;;5023496;28;20032;-75